createdAt,value
2022-10-22T00:01:07.430Z,59.03
2022-10-22T00:03:35.383Z,58.08
2022-10-22T00:06:03.857Z,57.88
2022-10-22T00:08:31.751Z,54.65
2022-10-22T00:10:59.539Z,53.95
2022-10-22T00:13:27.242Z,59.45
2022-10-22T00:15:57.032Z,58.35
2022-10-22T00:18:24.639Z,52.33
2022-10-22T00:20:54.248Z,61.42
2022-10-22T00:23:22.506Z,58.65
2022-10-22T00:25:50.549Z,50.30
2022-10-22T00:28:18.183Z,50.65
2022-10-22T00:30:45.862Z,58.20
2022-10-22T00:33:13.451Z,55.70
2022-10-22T00:35:41.204Z,66.38
2022-10-22T00:38:09.112Z,88.20
2022-10-22T00:40:37.102Z,72.68
2022-10-22T00:43:04.956Z,99.13
2022-10-22T00:45:32.549Z,87.50
2022-10-22T00:48:10.716Z,82.55
2022-10-22T00:51:00.166Z,72.22
2022-10-22T00:53:32.313Z,66.35
2022-10-22T00:55:59.849Z,67.60
2022-10-22T00:58:28.608Z,65.85
2022-10-22T01:00:56.987Z,73.15
2022-10-22T01:03:24.695Z,87.38
2022-10-22T01:06:03.554Z,76.15
2022-10-22T01:08:47.108Z,75.13
2022-10-22T01:11:32.520Z,73.20
2022-10-22T01:14:03.974Z,68.82
2022-10-22T01:16:42.821Z,77.38
2022-10-22T01:19:13.424Z,63.78
2022-10-22T01:21:44.789Z,91.13
2022-10-22T01:24:58.516Z,69.27
2022-10-22T01:27:34.253Z,67.45
2022-10-22T01:30:09.855Z,87.82
2022-10-22T01:32:46.004Z,89.55
2022-10-22T01:35:15.843Z,87.93
2022-10-22T01:37:51.327Z,83.30
2022-10-22T01:40:19.265Z,92.03
2022-10-22T01:42:57.908Z,78.55
2022-10-22T01:45:25.506Z,104.55
2022-10-22T01:48:05.652Z,79.78
2022-10-22T01:50:41.120Z,91.45
2022-10-22T01:54:13.212Z,77.15
2022-10-22T01:56:54.968Z,70.07
2022-10-22T01:59:36.694Z,75.65
2022-10-22T02:02:13.284Z,65.05
2022-10-22T02:04:49.947Z,69.22
2022-10-22T02:07:19.455Z,62.78
2022-10-22T02:09:47.107Z,59.00
2022-10-22T02:12:15.510Z,59.97
2022-10-22T02:14:43.558Z,64.40
2022-10-22T02:17:13.976Z,57.25
2022-10-22T02:19:56.641Z,64.75
2022-10-22T02:22:25.318Z,54.58
2022-10-22T02:24:52.922Z,55.58
2022-10-22T02:27:29.189Z,52.25
2022-10-22T02:32:56.962Z,52.05
2022-10-22T02:35:25.279Z,45.53
2022-10-22T02:37:53.081Z,46.97
2022-10-22T02:40:20.785Z,47.20
2022-10-22T02:42:48.881Z,43.15
2022-10-22T02:45:17.711Z,46.13
2022-10-22T02:47:45.423Z,44.40
2022-10-22T02:50:13.171Z,44.42
2022-10-22T02:52:40.947Z,41.47
2022-10-22T02:55:09.110Z,44.10
2022-10-22T02:57:37.903Z,36.33
2022-10-22T03:00:09.864Z,38.45
2022-10-22T03:02:37.465Z,40.25
2022-10-22T03:05:06.515Z,41.78
2022-10-22T03:07:34.594Z,43.78
2022-10-22T03:10:03.343Z,48.47
2022-10-22T03:12:35.650Z,40.22
2022-10-22T03:15:03.319Z,39.63
2022-10-22T03:17:32.828Z,42.05
2022-10-22T03:20:00.397Z,38.13
2022-10-22T03:22:29.057Z,39.30
2022-10-22T03:24:59.726Z,45.45
2022-10-22T03:27:28.540Z,49.20
2022-10-22T03:29:56.179Z,56.38
2022-10-22T03:32:23.765Z,51.83
2022-10-22T03:34:51.685Z,50.03
2022-10-22T03:37:19.221Z,53.83
2022-10-22T03:39:47.176Z,59.55
2022-10-22T03:42:16.344Z,65.88
2022-10-22T03:44:44.079Z,60.25
2022-10-22T03:47:11.634Z,66.20
2022-10-22T03:49:39.460Z,83.32
2022-10-22T03:52:11.763Z,69.38
2022-10-22T03:57:07.416Z,72.93
2022-10-22T03:59:39.830Z,55.00
2022-10-22T04:02:09.726Z,59.17
2022-10-22T04:04:38.902Z,58.38
2022-10-22T04:07:07.720Z,59.58
2022-10-22T04:09:39.855Z,56.33
2022-10-22T04:12:08.556Z,62.75
2022-10-22T04:14:37.007Z,66.93
2022-10-22T04:17:05.747Z,69.53
2022-10-22T04:19:34.206Z,70.38
2022-10-22T04:22:02.473Z,56.75
2022-10-22T04:24:31.798Z,65.95
2022-10-22T04:27:00.178Z,64.45
2022-10-22T04:29:27.815Z,66.20
2022-10-22T04:31:56.447Z,67.32
2022-10-22T04:34:28.123Z,64.28
2022-10-22T04:36:57.063Z,65.28
2022-10-22T04:39:24.911Z,65.95
2022-10-22T04:41:53.122Z,62.08
2022-10-22T04:44:22.641Z,62.17
2022-10-22T04:46:50.552Z,67.60
2022-10-22T04:49:18.741Z,75.10
2022-10-22T04:51:46.775Z,57.25
2022-10-22T04:54:15.835Z,58.75
2022-10-22T04:56:44.145Z,47.13
2022-10-22T04:59:12.975Z,50.25
2022-10-22T05:01:43.154Z,55.88
2022-10-22T05:04:15.791Z,55.07
2022-10-22T05:06:44.107Z,50.30
2022-10-22T05:09:22.091Z,50.15
2022-10-22T05:11:51.040Z,51.88
2022-10-22T05:14:21.196Z,48.70
2022-10-22T05:16:49.500Z,50.22
2022-10-22T05:19:20.500Z,47.38
2022-10-22T05:21:56.183Z,46.50
2022-10-22T05:24:24.035Z,46.97
2022-10-22T05:26:52.686Z,46.08
2022-10-22T05:29:21.013Z,47.63
2022-10-22T05:31:50.362Z,42.75
2022-10-22T05:34:18.686Z,43.72
2022-10-22T05:36:46.482Z,43.90
2022-10-22T05:39:14.456Z,45.20
2022-10-22T05:41:42.088Z,45.50
2022-10-22T05:44:11.431Z,41.22
2022-10-22T05:46:39.139Z,42.55
2022-10-22T05:49:07.346Z,40.78
2022-10-22T05:51:36.404Z,40.80
2022-10-22T05:54:05.953Z,41.05
2022-10-22T05:56:33.759Z,39.80
2022-10-22T06:01:31.247Z,44.33
2022-10-22T06:04:00.472Z,51.92
2022-10-22T06:06:46.400Z,54.40
2022-10-22T06:09:22.603Z,57.75
2022-10-22T06:11:51.681Z,60.78
2022-10-22T06:14:20.379Z,61.97
2022-10-22T06:16:48.384Z,65.65
2022-10-22T06:19:17.028Z,61.75
2022-10-22T06:21:46.698Z,62.90
2022-10-22T06:24:14.662Z,58.08
2022-10-22T06:26:42.492Z,62.58
2022-10-22T06:29:13.093Z,60.72
2022-10-22T06:31:40.889Z,50.78
2022-10-22T06:34:11.982Z,54.83
2022-10-22T06:39:13.829Z,57.85
2022-10-22T06:41:41.567Z,54.17
2022-10-22T06:44:13.606Z,48.72
2022-10-22T06:46:43.454Z,47.33
2022-10-22T06:49:16.400Z,40.78
2022-10-22T06:51:44.237Z,41.92
2022-10-22T06:54:11.876Z,41.33
2022-10-22T06:56:40.284Z,43.25
2022-10-22T06:59:07.913Z,42.08
2022-10-22T07:01:36.316Z,51.15
2022-10-22T07:04:04.416Z,48.20
2022-10-22T07:06:34.781Z,34.05
2022-10-22T07:09:02.857Z,43.97
2022-10-22T07:11:43.023Z,49.90
2022-10-22T07:14:10.883Z,50.97
2022-10-22T07:16:38.682Z,44.50
2022-10-22T07:19:06.916Z,48.25
2022-10-22T07:21:35.049Z,38.95
2022-10-22T07:24:03.085Z,35.17
2022-10-22T07:26:32.805Z,49.13
2022-10-22T07:29:00.941Z,23.40
2022-10-22T07:31:28.642Z,21.70
2022-10-22T07:33:56.533Z,19.77
2022-10-22T07:36:24.193Z,24.40
2022-10-22T07:38:57.222Z,34.75
2022-10-22T07:41:25.181Z,16.48
2022-10-22T07:43:53.018Z,27.90
2022-10-22T07:46:21.023Z,29.92
2022-10-22T07:48:48.697Z,23.13
2022-10-22T07:51:18.636Z,24.02
2022-10-22T07:53:47.011Z,9.65
2022-10-22T07:56:17.870Z,10.02
2022-10-22T07:58:46.051Z,9.38
2022-10-22T08:01:13.768Z,11.32
2022-10-22T08:03:41.420Z,22.67
2022-10-22T08:06:10.502Z,11.75
2022-10-22T08:08:38.817Z,10.20
2022-10-22T08:11:06.752Z,8.02
2022-10-22T08:13:37.490Z,6.70
2022-10-22T08:16:07.583Z,6.97
2022-10-22T08:18:38.780Z,7.03
2022-10-22T08:21:06.557Z,7.07
2022-10-22T08:23:34.955Z,7.75
2022-10-22T08:26:03.210Z,30.13
2022-10-22T08:28:33.055Z,8.07
2022-10-22T08:31:00.858Z,8.13
2022-10-22T08:33:28.514Z,6.20
2022-10-22T08:35:56.773Z,24.10
2022-10-22T08:38:25.263Z,6.82
2022-10-22T08:40:54.431Z,7.85
2022-10-22T08:43:38.125Z,6.47
2022-10-22T08:46:16.773Z,7.15
2022-10-22T08:48:54.839Z,7.75
2022-10-22T08:51:25.189Z,7.57
2022-10-22T08:54:16.980Z,7.75
2022-10-22T08:56:48.171Z,8.48
2022-10-22T08:59:20.465Z,13.80
2022-10-22T09:01:51.816Z,6.78
2022-10-22T09:04:26.990Z,25.35
2022-10-22T09:06:54.683Z,13.68
2022-10-22T09:09:23.687Z,14.95
2022-10-22T09:11:52.530Z,8.15
2022-10-22T09:14:25.116Z,11.45
2022-10-22T09:17:17.191Z,8.90
2022-10-22T09:19:48.302Z,13.18
2022-10-22T09:22:19.661Z,8.30
2022-10-22T09:24:49.269Z,5.20
2022-10-22T09:27:19.013Z,7.43
2022-10-22T09:29:48.953Z,5.88
2022-10-22T09:32:16.632Z,6.57
2022-10-22T09:34:45.773Z,4.32
2022-10-22T09:37:13.381Z,5.05
2022-10-22T09:39:44.013Z,4.85
2022-10-22T09:42:14.561Z,4.38
2022-10-22T09:44:44.972Z,4.13
2022-10-22T09:50:37.399Z,3.50
2022-10-22T09:53:19.504Z,6.88
2022-10-22T09:55:58.262Z,7.22
2022-10-22T09:58:26.112Z,5.00
2022-10-22T10:00:58.398Z,4.63
2022-10-22T10:03:31.709Z,6.70
2022-10-22T10:06:03.140Z,4.22
2022-10-22T10:08:34.188Z,3.72
2022-10-22T10:11:11.513Z,4.18
2022-10-22T10:13:48.285Z,4.78
2022-10-22T10:16:27.731Z,4.03
2022-10-22T10:19:06.308Z,3.50
2022-10-22T10:22:02.172Z,4.45
2022-10-22T10:24:48.121Z,5.55
2022-10-22T10:27:28.746Z,3.15
2022-10-22T10:30:17.169Z,6.72
2022-10-22T10:33:08.310Z,11.15
2022-10-22T10:36:06.646Z,10.95
2022-10-22T10:38:39.959Z,15.68
2022-10-22T10:41:35.946Z,3.15
2022-10-22T10:44:16.292Z,10.13
2022-10-22T10:47:05.141Z,26.30
2022-10-22T10:49:34.517Z,3.67
2022-10-22T10:52:20.353Z,3.45
2022-10-22T10:54:52.111Z,11.23
2022-10-22T10:57:35.373Z,29.17
2022-10-22T11:00:07.525Z,6.75
2022-10-22T11:02:48.277Z,4.28
2022-10-22T11:05:38.877Z,13.73
2022-10-22T11:08:11.434Z,15.32
2022-10-22T11:11:01.189Z,3.13
2022-10-22T11:13:39.100Z,5.60
2022-10-22T11:16:17.209Z,2.58
2022-10-22T11:19:22.699Z,3.88
2022-10-22T11:22:05.165Z,2.65
2022-10-22T11:24:49.178Z,2.45
2022-10-22T11:27:39.958Z,2.65
2022-10-22T11:30:19.052Z,3.05
2022-10-22T11:32:48.871Z,2.70
2022-10-22T11:35:22.217Z,2.40
2022-10-22T11:37:52.553Z,2.65
2022-10-22T11:40:21.748Z,2.80
2022-10-22T11:42:55.097Z,2.60
2022-10-22T11:45:25.482Z,2.78
2022-10-22T11:48:16.892Z,2.15
2022-10-22T11:50:49.094Z,2.17
2022-10-22T11:53:25.560Z,2.17
2022-10-22T11:56:23.476Z,2.60
2022-10-22T11:58:54.644Z,2.53
2022-10-22T12:01:40.903Z,2.42
2022-10-22T12:04:19.613Z,2.92
2022-10-22T12:06:58.351Z,3.47
2022-10-22T12:09:30.317Z,7.10
2022-10-22T12:12:15.542Z,8.00
2022-10-22T12:14:59.789Z,2.17
2022-10-22T12:17:28.337Z,4.63
2022-10-22T12:20:12.564Z,7.50
2022-10-22T12:22:41.443Z,10.75
2022-10-22T12:25:38.356Z,7.17
2022-10-22T12:28:11.792Z,22.30
2022-10-22T12:30:39.730Z,19.77
2022-10-22T12:33:08.312Z,43.28
2022-10-22T12:35:42.845Z,8.82
2022-10-22T12:38:16.241Z,19.05
2022-10-22T12:40:48.638Z,21.33
2022-10-22T12:43:24.712Z,3.47
2022-10-22T12:45:52.768Z,7.40
2022-10-22T12:48:34.593Z,10.70
2022-10-22T12:51:04.063Z,7.88
2022-10-22T12:53:48.041Z,1.90
2022-10-22T12:56:18.604Z,4.80
2022-10-22T12:58:49.458Z,2.27
2022-10-22T13:01:17.889Z,2.20
2022-10-22T13:03:50.869Z,2.70
2022-10-22T13:06:18.620Z,2.42
2022-10-22T13:08:59.541Z,2.30
2022-10-22T13:11:49.498Z,8.32
2022-10-22T13:14:36.332Z,4.32
2022-10-22T13:17:16.623Z,6.57
2022-10-22T13:20:02.273Z,9.18
2022-10-22T13:22:40.329Z,30.70
2022-10-22T13:25:14.169Z,7.85
2022-10-22T13:28:11.634Z,3.65
2022-10-22T13:30:39.832Z,6.60
2022-10-22T13:33:20.265Z,3.33
2022-10-22T13:35:48.065Z,5.75
2022-10-22T13:38:17.805Z,29.42
2022-10-22T13:40:45.825Z,40.08
2022-10-22T13:43:13.729Z,8.40
2022-10-22T13:45:44.653Z,12.32
2022-10-22T13:48:21.297Z,4.15
2022-10-22T13:50:50.627Z,5.88
2022-10-22T13:53:22.631Z,4.05
2022-10-22T13:55:50.531Z,7.03
2022-10-22T13:58:19.670Z,4.07
2022-10-22T14:00:50.361Z,6.13
2022-10-22T14:03:20.308Z,9.00
2022-10-22T14:05:48.278Z,10.63
2022-10-22T14:08:18.215Z,8.50
2022-10-22T14:10:45.775Z,11.10
2022-10-22T14:13:14.524Z,9.60
2022-10-22T14:15:43.626Z,11.23
2022-10-22T14:18:13.100Z,12.43
2022-10-22T14:20:42.937Z,14.43
2022-10-22T14:25:48.389Z,16.85
2022-10-22T14:28:16.247Z,15.50
2022-10-22T14:30:44.737Z,12.90
2022-10-22T14:33:17.436Z,12.32
2022-10-22T14:35:45.929Z,17.77
2022-10-22T14:38:13.598Z,18.23
2022-10-22T14:40:43.417Z,17.42
2022-10-22T14:43:22.761Z,22.13
2022-10-22T14:45:50.582Z,18.70
2022-10-22T14:50:47.255Z,20.23
2022-10-22T14:53:17.016Z,18.40
2022-10-22T14:55:44.865Z,16.95
2022-10-22T14:58:12.886Z,13.75
2022-10-22T15:00:43.792Z,21.90
2022-10-22T15:03:11.777Z,23.42
2022-10-22T15:05:46.568Z,18.08
2022-10-22T15:08:14.896Z,14.35
2022-10-22T15:10:42.644Z,12.43
2022-10-22T15:15:41.558Z,10.77
2022-10-22T15:18:09.579Z,11.20
2022-10-22T15:20:37.280Z,11.52
2022-10-22T15:23:05.223Z,11.57
2022-10-22T15:25:32.944Z,12.48
2022-10-22T15:28:09.192Z,14.02
2022-10-22T15:30:37.778Z,13.80
2022-10-22T15:33:06.196Z,12.48
2022-10-22T15:35:33.945Z,11.63
2022-10-22T15:38:01.629Z,11.88
2022-10-22T15:40:29.398Z,12.55
2022-10-22T15:42:57.336Z,12.77
2022-10-22T15:45:25.942Z,11.65
2022-10-22T15:47:54.531Z,12.05
2022-10-22T15:50:22.607Z,11.93
2022-10-22T15:52:50.267Z,12.50
2022-10-22T15:55:19.060Z,16.35
2022-10-22T15:57:46.728Z,16.08
2022-10-22T16:00:14.746Z,12.70
2022-10-22T16:02:42.850Z,12.05
2022-10-22T16:05:10.394Z,14.23
2022-10-22T16:07:38.645Z,15.63
2022-10-22T16:10:07.881Z,17.05
2022-10-22T16:12:36.197Z,16.55
2022-10-22T16:15:04.129Z,17.23
2022-10-22T16:17:31.895Z,12.20
2022-10-22T16:20:00.473Z,10.80
2022-10-22T16:22:28.103Z,11.82
2022-10-22T16:24:55.901Z,10.10
2022-10-22T16:27:23.699Z,11.73
2022-10-22T16:29:52.169Z,11.68
2022-10-22T16:32:23.432Z,13.55
2022-10-22T16:34:51.288Z,15.95
2022-10-22T16:37:18.952Z,16.02
2022-10-22T16:39:46.601Z,16.45
2022-10-22T16:42:14.348Z,14.00
2022-10-22T16:44:41.911Z,11.52
2022-10-22T16:47:09.638Z,13.73
2022-10-22T16:49:37.198Z,14.07
2022-10-22T16:52:05.469Z,22.08
2022-10-22T16:54:33.492Z,57.88
2022-10-22T16:57:01.222Z,38.75
2022-10-22T16:59:29.005Z,23.45
2022-10-22T17:01:57.580Z,19.90
2022-10-22T17:04:25.235Z,14.02
2022-10-22T17:06:53.265Z,18.60
2022-10-22T17:09:24.396Z,28.58
2022-10-22T17:11:52.709Z,28.38
2022-10-22T17:14:20.737Z,25.60
2022-10-22T17:16:53.765Z,22.25
2022-10-22T17:19:22.330Z,24.05
2022-10-22T17:21:51.406Z,26.55
2022-10-22T17:24:19.597Z,27.15
2022-10-22T17:26:47.287Z,25.35
2022-10-22T17:29:15.616Z,17.65
2022-10-22T17:31:43.521Z,19.30
2022-10-22T17:34:15.775Z,14.82
2022-10-22T17:36:43.716Z,14.50
2022-10-22T17:39:11.873Z,14.73
2022-10-22T17:41:40.537Z,16.00
2022-10-22T17:44:17.292Z,15.40
2022-10-22T17:46:45.708Z,17.17
2022-10-22T17:49:17.481Z,17.63
2022-10-22T17:54:13.491Z,27.85
2022-10-22T17:56:41.659Z,22.25
2022-10-22T17:59:10.408Z,21.75
2022-10-22T18:01:43.544Z,19.98
2022-10-22T18:04:13.669Z,23.85
2022-10-22T18:06:41.252Z,23.48
2022-10-22T18:09:10.699Z,25.83
2022-10-22T18:11:41.003Z,19.92
2022-10-22T18:14:09.650Z,18.75
2022-10-22T18:16:37.265Z,18.45
2022-10-22T18:19:15.640Z,19.10
2022-10-22T18:21:44.258Z,21.58
2022-10-22T18:24:13.173Z,19.00
2022-10-22T18:26:43.495Z,21.48
2022-10-22T18:29:14.958Z,21.52
2022-10-22T18:31:42.547Z,24.80
2022-10-22T18:34:10.336Z,28.10
2022-10-22T18:36:38.408Z,26.15
2022-10-22T18:39:06.075Z,29.77
2022-10-22T18:41:34.327Z,24.50
2022-10-22T18:44:04.128Z,28.85
2022-10-22T18:46:34.806Z,21.08
2022-10-22T18:49:02.566Z,19.88
2022-10-22T18:51:31.054Z,15.73
2022-10-22T18:54:05.471Z,14.77
2022-10-22T18:56:40.864Z,10.57
2022-10-22T18:59:14.317Z,12.05
2022-10-22T19:01:42.016Z,10.93
2022-10-22T19:04:10.089Z,13.90
2022-10-22T19:06:41.721Z,9.32
2022-10-22T19:09:11.294Z,11.90
2022-10-22T19:11:39.052Z,13.98
2022-10-22T19:14:06.701Z,14.85
2022-10-22T19:16:35.308Z,16.13
2022-10-22T19:19:04.632Z,15.65
2022-10-22T19:21:33.258Z,12.70
2022-10-22T19:24:02.582Z,14.18
2022-10-22T19:26:33.078Z,17.23
2022-10-22T19:29:00.735Z,20.35
2022-10-22T19:31:30.199Z,25.08
2022-10-22T19:34:01.740Z,26.15
2022-10-22T19:36:41.616Z,27.77
2022-10-22T19:39:09.196Z,41.28
2022-10-22T19:41:36.871Z,25.58
2022-10-22T19:44:05.206Z,23.65
2022-10-22T19:46:33.090Z,23.05
2022-10-22T19:49:02.279Z,25.38
2022-10-22T19:51:30.890Z,22.80
2022-10-22T19:54:04.083Z,19.25
2022-10-22T19:56:32.641Z,18.27
2022-10-22T19:59:00.502Z,19.23
2022-10-22T20:01:28.380Z,20.27
2022-10-22T20:03:56.183Z,28.67
2022-10-22T20:06:24.126Z,30.77
2022-10-22T20:08:55.200Z,34.47
2022-10-22T20:11:27.080Z,30.80
2022-10-22T20:13:54.895Z,28.05
2022-10-22T20:16:24.481Z,26.88
2022-10-22T20:18:52.974Z,22.10
2022-10-22T20:21:20.784Z,21.38
2022-10-22T20:23:52.211Z,19.02
2022-10-22T20:26:20.648Z,18.33
2022-10-22T20:28:48.303Z,19.48
2022-10-22T20:31:17.084Z,21.63
2022-10-22T20:33:44.690Z,19.35
2022-10-22T20:36:14.202Z,23.45
2022-10-22T20:38:41.730Z,22.58
2022-10-22T20:41:11.857Z,20.13
2022-10-22T20:43:39.847Z,19.88
2022-10-22T20:46:07.370Z,18.70
2022-10-22T20:48:35.034Z,18.60
2022-10-22T20:51:02.705Z,18.33
2022-10-22T20:53:31.073Z,19.63
2022-10-22T20:55:58.925Z,18.60
2022-10-22T20:58:27.198Z,19.23
2022-10-22T21:00:55.021Z,15.55
2022-10-22T21:03:23.124Z,19.45
2022-10-22T21:05:50.785Z,21.08
2022-10-22T21:08:18.577Z,23.48
2022-10-22T21:10:49.143Z,31.58
2022-10-22T21:13:17.349Z,43.88
2022-10-22T21:15:44.967Z,40.88
2022-10-22T21:18:13.374Z,37.88
2022-10-22T21:20:41.314Z,35.70
2022-10-22T21:23:09.138Z,32.10
2022-10-22T21:25:41.984Z,29.38
2022-10-22T21:28:11.563Z,26.45
2022-10-22T21:30:45.683Z,22.50
2022-10-22T21:33:13.475Z,25.10
2022-10-22T21:35:41.507Z,25.42
2022-10-22T21:38:09.426Z,24.40
2022-10-22T21:40:38.736Z,21.30
2022-10-22T21:43:06.421Z,19.80
2022-10-22T21:48:01.700Z,18.65
2022-10-22T21:50:29.799Z,23.10
2022-10-22T21:52:57.552Z,21.25
2022-10-22T21:55:25.234Z,23.10
2022-10-22T21:57:52.972Z,26.20
2022-10-22T22:00:20.900Z,27.60
2022-10-22T22:02:52.327Z,31.27
2022-10-22T22:05:21.666Z,34.03
2022-10-22T22:07:49.206Z,38.67
2022-10-22T22:10:18.311Z,46.55
2022-10-22T22:12:47.799Z,48.83
2022-10-22T22:15:15.495Z,48.05
2022-10-22T22:17:43.614Z,48.35
2022-10-22T22:20:11.646Z,49.30
2022-10-22T22:22:40.033Z,48.42
2022-10-22T22:25:08.187Z,51.92
2022-10-22T22:27:35.860Z,51.65
2022-10-22T22:30:04.038Z,43.78
2022-10-22T22:32:33.073Z,47.40
2022-10-22T22:35:00.706Z,49.03
2022-10-22T22:37:28.646Z,51.25
2022-10-22T22:39:57.048Z,51.10
2022-10-22T22:42:25.601Z,54.85
2022-10-22T22:44:53.154Z,55.65
2022-10-22T22:47:20.697Z,58.50
2022-10-22T22:49:48.267Z,56.70
2022-10-22T22:52:16.009Z,61.40
2022-10-22T22:54:43.660Z,64.43
2022-10-22T22:57:11.353Z,70.70
2022-10-22T22:59:39.042Z,76.07
2022-10-22T23:02:07.025Z,79.30
2022-10-22T23:04:34.939Z,65.47
2022-10-22T23:07:02.665Z,66.68
2022-10-22T23:09:30.729Z,67.75
2022-10-22T23:11:58.475Z,66.03
2022-10-22T23:14:27.489Z,66.57
2022-10-22T23:16:56.093Z,64.78
2022-10-22T23:19:23.837Z,60.17
2022-10-22T23:21:53.277Z,51.10
2022-10-22T23:24:23.039Z,46.22
2022-10-22T23:26:51.351Z,38.67
2022-10-22T23:29:21.170Z,36.58
2022-10-22T23:31:49.792Z,38.30
2022-10-22T23:34:21.945Z,36.28
2022-10-22T23:36:49.968Z,39.33
2022-10-22T23:39:18.980Z,38.97
2022-10-22T23:41:46.632Z,38.78
2022-10-22T23:44:16.402Z,36.70
2022-10-22T23:46:44.013Z,40.20
2022-10-22T23:49:11.710Z,40.25
2022-10-22T23:51:39.558Z,39.58
2022-10-22T23:54:10.366Z,37.10
2022-10-22T23:56:38.381Z,50.25
2022-10-22T23:59:06.120Z,65.28
